Huehuetenango Airport


Codes: MGHT/HUG
Name: Huehuetenango Airport
City: Huehuetenango
Country: Guatemala
Elevation: 6375 ft.

Photos at Huehuetenango Airport


   Photos courtesy of SpottingLog. You can add your own sightings and photos by signing up for a free trial today.



No photos found.

Weather at Huehuetenango Airport


Time (UTC)DescriptionTempratureWindCloud coverageVisibilityPressureHumidity
21-Feb-2024 03:00Clear Sky17°C2 mph, E4%10000m1024hPa46%
21-Feb-2024 06:00Clear Sky13°C2 mph, E4%10000m1025hPa58%
21-Feb-2024 09:00Clear Sky8°C2 mph, E9%10000m1024hPa62%
21-Feb-2024 12:00Few Clouds7°C2 mph, E11%10000m1025hPa49%
21-Feb-2024 15:00Clear Sky17°C4 mph, E8%10000m1023hPa23%
21-Feb-2024 18:00Clear Sky24°C4 mph, SE6%10000m1019hPa14%
21-Feb-2024 21:00Clear Sky25°C7 mph, SE2%10000m1015hPa18%
22-Feb-2024 00:00Clear Sky16°C2 mph, E10%10000m1019hPa47%
22-Feb-2024 03:00Clear Sky11°C0 mph, E5%10000m1024hPa67%
22-Feb-2024 06:00Clear Sky9°C0 mph, NE2%10000m1024hPa67%
22-Feb-2024 09:00Clear Sky9°C2 mph, NW0%10000m1022hPa51%
22-Feb-2024 12:00Clear Sky9°C2 mph, NW0%10000m1021hPa32%
22-Feb-2024 15:00Clear Sky21°C2 mph, SW0%10000m1018hPa16%
22-Feb-2024 18:00Clear Sky28°C2 mph, SE0%10000m1014hPa8%
22-Feb-2024 21:00Clear Sky28°C2 mph, E0%10000m1010hPa11%
23-Feb-2024 00:00Clear Sky18°C2 mph, NW0%10000m1014hPa38%
23-Feb-2024 03:00Clear Sky14°C2 mph, NW0%10000m1018hPa50%
23-Feb-2024 06:00Clear Sky12°C2 mph, NW0%10000m1018hPa52%
23-Feb-2024 09:00Clear Sky12°C2 mph, NW0%10000m1017hPa47%
23-Feb-2024 12:00Clear Sky11°C2 mph, NW0%10000m1017hPa30%
23-Feb-2024 15:00Clear Sky22°C2 mph, NW0%10000m1015hPa17%
23-Feb-2024 18:00Clear Sky28°C2 mph, SE0%10000m1012hPa11%
23-Feb-2024 21:00Clear Sky28°C2 mph, NE0%10000m1009hPa15%
24-Feb-2024 00:00Clear Sky19°C4 mph, N0%10000m1013hPa41%
24-Feb-2024 03:00Clear Sky13°C2 mph, N0%10000m1019hPa61%
24-Feb-2024 06:00Clear Sky11°C0 mph, N0%10000m1019hPa67%
24-Feb-2024 09:00Clear Sky10°C0 mph, NW0%10000m1019hPa72%
24-Feb-2024 12:00Clear Sky9°C0 mph, NW2%10000m1020hPa73%
24-Feb-2024 15:00Clear Sky19°C2 mph, SE1%10000m1019hPa34%
24-Feb-2024 18:00Clear Sky25°C4 mph, SE0%10000m1016hPa17%
24-Feb-2024 21:00Clear Sky26°C4 mph, SE3%10000m1013hPa19%
25-Feb-2024 00:00Clear Sky18°C4 mph, NE5%10000m1017hPa48%
25-Feb-2024 03:00Clear Sky12°C2 mph, NE3%10000m1022hPa74%
25-Feb-2024 06:00Clear Sky10°C2 mph, E2%10000m1023hPa82%
25-Feb-2024 09:00Clear Sky8°C2 mph, E0%10000m1022hPa65%
25-Feb-2024 12:00Clear Sky8°C0 mph, NE0%10000m1023hPa51%
25-Feb-2024 15:00Clear Sky19°C2 mph, SE0%10000m1020hPa22%
25-Feb-2024 18:00Clear Sky26°C4 mph, SE1%10000m1016hPa13%
25-Feb-2024 21:00Clear Sky27°C7 mph, SE1%10000m1013hPa19%
26-Feb-2024 00:00Clear Sky18°C4 mph, NE2%10000m1016hPa49%